Terminal Aerodrome Forecast
Issued by NWS

Home | Current Version | Previous Version | Text Only | Print | Product List | Glossary On
Versions: 1 2 3 4 5 6 7 8 9 10 11 12 13 14 15 16 17 18
000
FTUS43 KDTX 050539
TAFYIP
TAF
KYIP 050539Z 0506/0606 22004KT 3SM BR OVC004
     FM050800 25009KT P6SM BKN006 OVC015
     FM051400 24009KT P6SM OVC014
     FM060000 18005KT P6SM SCT018=

USA.gov is the U.S. government's official web portal to all federal, state and local government web resources and services.